Chickasaw, Alabama
Current Conditions -  °F | °C
As of 3:53 AM on Thursday 23 Oct 2014 (Local Time) from KBFM Reporting Station
Clear Clear  
Wind Chill: 47°   Ceiling: Unl
Heat Index: 49°   Visibility: 10mi
Dew Point: 46°   Wind: 6mph
Humidity: 90%   Direction: 320°NW
Pressure: 30.08"   Gusts: NA
Location:  30.7759°N, 88.0795°W
Report Text: KBFM 230853Z 32005KT 10SM CLR 09/08 A3008 RMK AO2 SLP187 T00940078 56002
Loading
Personal Weather Stations






























Interactive Weather Map
Tropical Storm Tracking
New forecast layout! Learn more

10-Day Weather Forecast

Advertisements
Track Severe Weather on mobile